Main page
METAR-TAF:

METAR-TAF

Airports :

Faro Airport

Faro, Portugal

latitude: 37-01N, longitude: 007-58W, elevation: 7 m

Current weather observation

The report was made 32 minutes ago, at 07:30 UTC
Wind 11 kt from the Northwest
Temperature 12°C
Humidity 76%
Pressure 1016 hPa
Visibility 10 km or more
Few clouds at a height of 2200 ft

METAR: LPFR 200730Z 31011KT 9999 FEW022 12/08 Q1016

Time: 08:02 (08:02 UTC)

Forecast

The report was made 3 hours and 2 minutes ago, at 05:00 UTC
Forecast valid from 20 at 06 UTC to 21 at 06 UTC
Wind 13 kt from the Northwest
Visibility 10 km or more
Scattered clouds at a height of 2000 ft
Probability 30% :
Temporary
from 20 at 06 UTC to 20 at 17 UTC
Wind 18 kt from the Northwest with gusts up to 28 kt
Becoming
from 20 at 17 UTC to 20 at 19 UTC
Wind 10 kt from the North/Northwest
Visibility 10 km or more
no clouds below 1500 m and no cumulonimbus

TAF: LPFR 200500Z 2006/2106 31013KT 9999 SCT020 PROB30 TEMPO 2006/2017 31018G28KT BECMG 2017/2019 34010KT CAVOK

Weather observations and forecasts of more than 4000 airports (METAR and TAF reports).

The available stations are represented by yellow and red dots on the map.

Hover mouse over dot to see the name of the station.

Then click to see weather observations and forecasts.

To change the map : click on the green buttons with a black cross to zoom in, on the green button with a dash to zoom out, or on the green arrows for adjacent maps.


METAR-TAF: